Time;durP1;ratioP1;P1;durP2;ratioP2;P2;SDS_P1;SDS_P2;PMS_P1;PMS_P2;Temp;Humidity;BMP_temperature;BMP_pressure;BME280_temperature;BME280_humidity;BME280_pressure;Samples;Min_cycle;Max_cycle;Signal;HPM_P1;HPM_P2
2022/01/28 00:00:18;;;;;;;37.17;14.20;;;;;;;;;;6233123;28;20683;-61
2022/01/28 00:03:39;;;;;;;35.33;14.68;;;;;;;;;;6231018;28;20056;-62
2022/01/28 00:06:40;;;;;;;35.75;13.65;;;;;;;;;;6229299;28;20424;-62
2022/01/28 00:09:41;;;;;;;38.08;14.40;;;;;;;;;;6231814;28;20056;-61
2022/01/28 00:39:09;;;;;;;36.42;14.52;;;;;;;;;;6233570;28;20123;-59
2022/01/28 00:42:10;;;;;;;37.83;14.73;;;;;;;;;;6235833;28;20053;-61
2022/01/28 00:45:11;;;;;;;35.53;13.90;;;;;;;;;;6234468;28;20081;-61
2022/01/28 00:48:11;;;;;;;36.72;14.70;;;;;;;;;;6233260;28;20530;-64
2022/01/28 00:51:12;;;;;;;44.53;16.25;;;;;;;;;;6237808;28;20046;-63
2022/01/28 00:54:13;;;;;;;38.50;14.77;;;;;;;;;;6238541;28;20059;-62
2022/01/28 00:57:13;;;;;;;39.72;14.88;;;;;;;;;;6242252;28;20068;-62
2022/01/28 01:00:14;;;;;;;39.80;15.05;;;;;;;;;;6237842;28;20408;-59
2022/01/28 01:03:15;;;;;;;37.40;15.43;;;;;;;;;;6241030;28;20115;-62
2022/01/28 01:06:17;;;;;;;35.50;15.00;;;;;;;;;;6238901;28;20053;-62
2022/01/28 01:09:18;;;;;;;37.67;13.88;;;;;;;;;;6236582;28;20081;-62
2022/01/28 01:12:21;;;;;;;35.58;14.98;;;;;;;;;;6238929;28;20184;-62
2022/01/28 01:15:26;;;;;;;36.78;13.82;;;;;;;;;;6234938;28;20618;-62
2022/01/28 01:18:35;;;;;;;32.92;13.07;;;;;;;;;;6238056;28;20594;-62
2022/01/28 01:21:41;;;;;;;34.70;13.35;;;;;;;;;;6238864;28;20141;-62
2022/01/28 01:24:53;;;;;;;34.45;12.48;;;;;;;;;;6238026;28;20063;-63
2022/01/28 01:27:56;;;;;;;;;;;;;;;;;;6236247;28;21063;-62
2022/01/28 01:30:58;;;;;;;;;;;;;;;;;;6241143;28;20019;-61
2022/01/28 01:34:12;;;;;;;30.33;12.60;;;;;;;;;;6238348;28;19928;-61
2022/01/28 01:37:13;;;;;;;28.60;11.68;;;;;;;;;;6239774;28;20069;-64
2022/01/28 01:40:19;;;;;;;31.67;12.52;;;;;;;;;;6247410;28;20041;-63
2022/01/28 01:52:49;;;;;;;33.83;12.85;;;;;;;;;;6239051;28;20124;-65
2022/01/28 01:55:49;;;;;;;31.40;11.25;;;;;;;;;;6238751;28;20053;-64
2022/01/28 01:58:50;;;;;;;28.08;11.73;;;;;;;;;;6238726;28;20069;-67
2022/01/28 02:01:51;;;;;;;24.25;10.93;;;;;;;;;;6235006;28;20037;-59
2022/01/28 02:04:52;;;;;;;27.92;10.52;;;;;;;;;;6234543;28;20216;-64
2022/01/28 02:07:52;;;;;;;31.25;11.27;;;;;;;;;;6237378;28;20046;-65
2022/01/28 02:10:58;;;;;;;24.45;11.10;;;;;;;;;;6235661;28;20160;-63
2022/01/28 02:13:58;;;;;;;27.70;11.00;;;;;;;;;;6237519;28;20056;-65
2022/01/28 02:17:00;;;;;;;29.73;11.50;;;;;;;;;;6237656;28;20519;-59
2022/01/28 02:20:01;;;;;;;28.35;10.75;;;;;;;;;;6236857;28;20057;-62
2022/01/28 02:23:02;;;;;;;30.38;11.68;;;;;;;;;;6231414;28;20073;-63
2022/01/28 02:26:05;;;;;;;28.27;10.68;;;;;;;;;;6240278;28;20071;-59
2022/01/28 02:29:13;;;;;;;;;;;;;;;;;;6234242;28;20081;-62
2022/01/28 02:32:13;;;;;;;27.20;11.10;;;;;;;;;;6234640;28;19950;-62
2022/01/28 02:35:15;;;;;;;25.60;10.05;;;;;;;;;;6232290;28;20045;-62
2022/01/28 02:38:17;;;;;;;24.52;10.50;;;;;;;;;;6237389;28;20050;-63
2022/01/28 02:41:19;;;;;;;25.08;10.63;;;;;;;;;;6233547;28;20137;-64
2022/01/28 02:44:25;;;;;;;24.67;9.75;;;;;;;;;;6236245;28;20060;-63
2022/01/28 02:47:33;;;;;;;24.17;10.50;;;;;;;;;;6235781;28;20150;-63
2022/01/28 02:50:44;;;;;;;21.88;9.00;;;;;;;;;;6234430;28;20044;-63
2022/01/28 02:57:00;;;;;;;22.52;8.85;;;;;;;;;;6236886;28;20084;-63
2022/01/28 03:00:00;;;;;;;;;;;;;;;;;;6239064;28;20041;-61
2022/01/28 03:03:01;;;;;;;23.42;9.45;;;;;;;;;;6233457;28;20015;-63
2022/01/28 03:06:02;;;;;;;23.13;9.35;;;;;;;;;;6235659;28;20037;-61
2022/01/28 03:09:16;;;;;;;25.15;10.15;;;;;;;;;;6236270;28;20476;-62
2022/01/28 03:12:20;;;;;;;19.30;8.70;;;;;;;;;;6234950;28;20040;-63
2022/01/28 03:15:22;;;;;;;23.50;9.25;;;;;;;;;;6233101;28;20088;-63
2022/01/28 03:18:29;;;;;;;24.45;10.02;;;;;;;;;;6234586;28;20073;-63
2022/01/28 03:24:31;;;;;;;22.08;9.43;;;;;;;;;;6233575;28;20624;-62
2022/01/28 03:27:53;;;;;;;24.77;9.77;;;;;;;;;;6239215;28;20176;-62
2022/01/28 03:30:54;;;;;;;20.00;9.50;;;;;;;;;;6236993;28;20037;-62
2022/01/28 03:33:54;;;;;;;23.45;9.45;;;;;;;;;;6234617;28;20393;-62
2022/01/28 03:36:56;;;;;;;23.27;9.38;;;;;;;;;;6234160;28;20041;-64
2022/01/28 03:39:57;;;;;;;24.58;10.32;;;;;;;;;;6234841;28;20045;-62
2022/01/28 03:42:58;;;;;;;21.70;9.38;;;;;;;;;;6234440;28;20640;-62
2022/01/28 03:45:58;;;;;;;22.10;9.10;;;;;;;;;;6236572;28;20038;-61
2022/01/28 03:48:59;;;;;;;27.52;9.60;;;;;;;;;;6232305;28;20045;-62
2022/01/28 03:52:00;;;;;;;23.05;9.63;;;;;;;;;;6235810;28;20114;-60
2022/01/28 03:55:00;;;;;;;20.25;8.63;;;;;;;;;;6234933;28;20067;-62
2022/01/28 03:58:02;;;;;;;20.23;9.05;;;;;;;;;;6236007;28;20047;-62
2022/01/28 04:01:08;;;;;;;21.13;9.18;;;;;;;;;;6236977;28;20084;-63
2022/01/28 04:13:53;;;;;;;15.63;5.75;;;;;;;;;;6255794;28;20111;-61
2022/01/28 04:20:13;;;;;;;18.08;5.35;;;;;;;;;;6234214;28;20532;-63
2022/01/28 04:23:14;;;;;;;14.95;5.70;;;;;;;;;;6236787;28;20299;-62
2022/01/28 04:26:15;;;;;;;17.02;6.25;;;;;;;;;;6236265;28;20073;-61
2022/01/28 04:29:15;;;;;;;14.43;5.93;;;;;;;;;;6238789;28;20136;-63
2022/01/28 04:32:18;;;;;;;16.05;6.75;;;;;;;;;;6242132;28;20091;-61
2022/01/28 04:35:19;;;;;;;;;;;;;;;;;;6237628;28;20049;-61
2022/01/28 04:41:48;;;;;;;19.45;7.90;;;;;;;;;;6236999;28;20640;-63
2022/01/28 04:48:14;;;;;;;15.23;6.50;;;;;;;;;;6239857;28;20061;-64
2022/01/28 04:51:34;;;;;;;13.82;5.95;;;;;;;;;;6230540;28;20136;-65
2022/01/28 05:04:14;;;;;;;11.07;3.45;;;;;;;;;;6236886;28;20084;-63
2022/01/28 05:23:52;;;;;;;10.07;2.88;;;;;;;;;;6240855;28;20046;-65
2022/01/28 05:27:00;;;;;;;7.15;2.75;;;;;;;;;;6237476;28;20160;-61
2022/01/28 05:30:02;;;;;;;9.32;3.55;;;;;;;;;;6237441;28;20041;-60
2022/01/28 05:33:02;;;;;;;10.63;3.40;;;;;;;;;;6232258;28;20429;-60
2022/01/28 05:36:03;;;;;;;10.20;3.38;;;;;;;;;;6240382;28;20042;-61
2022/01/28 05:39:04;;;;;;;10.60;3.63;;;;;;;;;;6238216;28;20041;-63
2022/01/28 05:42:05;;;;;;;9.02;3.35;;;;;;;;;;6240699;28;20137;-60
2022/01/28 05:45:06;;;;;;;13.05;4.45;;;;;;;;;;6240499;28;20050;-62
2022/01/28 05:48:07;;;;;;;11.67;4.30;;;;;;;;;;6239586;28;20575;-60
2022/01/28 05:51:08;;;;;;;11.73;4.22;;;;;;;;;;6236113;28;20041;-62
2022/01/28 05:54:10;;;;;;;12.18;4.20;;;;;;;;;;6236751;28;20072;-57
2022/01/28 05:57:10;;;;;;;9.48;4.63;;;;;;;;;;6237474;28;20053;-62
2022/01/28 06:00:13;;;;;;;9.75;3.72;;;;;;;;;;6239296;28;20456;-60
2022/01/28 06:03:13;;;;;;;10.68;4.28;;;;;;;;;;6235029;28;20045;-61
2022/01/28 06:06:19;;;;;;;8.27;3.88;;;;;;;;;;6237706;28;22265;-61
2022/01/28 06:09:20;;;;;;;14.88;5.03;;;;;;;;;;6236216;28;20068;-60
2022/01/28 06:12:20;;;;;;;12.85;4.90;;;;;;;;;;6237171;28;20034;-61
2022/01/28 06:15:21;;;;;;;12.73;5.25;;;;;;;;;;6239399;28;20496;-61
2022/01/28 06:18:22;;;;;;;16.10;6.03;;;;;;;;;;6229058;28;20501;-61
2022/01/28 06:21:22;;;;;;;16.63;5.93;;;;;;;;;;6235011;28;20381;-61
2022/01/28 06:24:23;;;;;;;12.45;5.22;;;;;;;;;;6239796;28;20056;-61
2022/01/28 06:27:24;;;;;;;15.13;6.03;;;;;;;;;;6234774;28;20061;-59
2022/01/28 06:30:25;;;;;;;15.45;5.63;;;;;;;;;;6238860;28;20079;-62
2022/01/28 06:33:26;;;;;;;9.90;5.25;;;;;;;;;;6237660;28;20054;-62
2022/01/28 06:36:27;;;;;;;15.50;5.68;;;;;;;;;;6238353;28;20056;-59
2022/01/28 06:39:27;;;;;;;14.98;6.20;;;;;;;;;;6236459;28;20065;-59
2022/01/28 06:42:28;;;;;;;17.30;5.10;;;;;;;;;;6238224;28;20674;-59
2022/01/28 06:45:29;;;;;;;13.18;5.22;;;;;;;;;;6238362;28;20048;-59
2022/01/28 06:48:30;;;;;;;11.82;4.90;;;;;;;;;;6235786;28;20049;-60
2022/01/28 06:51:32;;;;;;;17.45;5.47;;;;;;;;;;6236816;28;20050;-60
2022/01/28 06:54:32;;;;;;;;;;;;;;;;;;6239685;28;20131;-59
2022/01/28 06:57:33;;;;;;;18.95;4.85;;;;;;;;;;6236813;28;19925;-60
2022/01/28 07:00:39;;;;;;;10.90;4.25;;;;;;;;;;6240531;28;20049;-61
2022/01/28 07:03:40;;;;;;;14.05;4.28;;;;;;;;;;6237806;28;20053;-58
2022/01/28 07:06:41;;;;;;;16.50;4.30;;;;;;;;;;6239763;28;20508;-61
2022/01/28 07:09:42;;;;;;;20.17;4.45;;;;;;;;;;6233566;28;20045;-61
2022/01/28 07:12:43;;;;;;;15.68;5.78;;;;;;;;;;6238821;28;20420;-60
2022/01/28 07:15:45;;;;;;;17.38;4.03;;;;;;;;;;6238757;28;20037;-61
2022/01/28 07:18:45;;;;;;;12.27;4.35;;;;;;;;;;6235972;28;20049;-59
2022/01/28 07:21:46;;;;;;;18.00;4.65;;;;;;;;;;6229592;28;20041;-60
2022/01/28 07:24:47;;;;;;;15.27;5.50;;;;;;;;;;6235293;28;20049;-62
2022/01/28 07:27:47;;;;;;;13.65;5.38;;;;;;;;;;6234495;28;20069;-61
2022/01/28 07:30:48;;;;;;;15.65;4.45;;;;;;;;;;6254701;28;20107;-60
2022/01/28 07:33:49;;;;;;;11.82;3.97;;;;;;;;;;6233423;28;20049;-61
2022/01/28 07:36:52;;;;;;;18.27;4.30;;;;;;;;;;6233211;28;20056;-61
2022/01/28 07:39:53;;;;;;;12.93;5.13;;;;;;;;;;6231420;28;20501;-61
2022/01/28 07:42:54;;;;;;;17.42;4.38;;;;;;;;;;6232265;28;20447;-62
2022/01/28 07:45:54;;;;;;;11.13;3.58;;;;;;;;;;6234242;28;20055;-58
2022/01/28 07:48:55;;;;;;;16.48;4.55;;;;;;;;;;6230816;28;20049;-60
2022/01/28 07:51:56;;;;;;;12.70;4.22;;;;;;;;;;6233508;28;20057;-61
2022/01/28 07:54:57;;;;;;;13.20;3.80;;;;;;;;;;6239216;28;20452;-60
2022/01/28 07:57:58;;;;;;;15.88;4.05;;;;;;;;;;6236043;28;20157;-59
2022/01/28 08:00:58;;;;;;;13.82;5.30;;;;;;;;;;6235104;28;20041;-58
2022/01/28 08:03:59;;;;;;;18.55;3.67;;;;;;;;;;6232835;28;20572;-62
2022/01/28 08:07:00;;;;;;;16.10;5.38;;;;;;;;;;6233259;28;20496;-60
2022/01/28 08:10:00;;;;;;;16.23;3.95;;;;;;;;;;6230186;28;20041;-59
2022/01/28 08:13:03;;;;;;;16.45;4.63;;;;;;;;;;6238588;28;20255;-60
2022/01/28 08:16:04;;;;;;;;;;;;;;;;;;6255047;28;20053;-60
2022/01/28 08:19:05;;;;;;;16.90;4.32;;;;;;;;;;6230419;28;19925;-59
2022/01/28 08:22:06;;;;;;;15.90;5.80;;;;;;;;;;6229509;28;20041;-60
2022/01/28 08:25:06;;;;;;;22.10;5.25;;;;;;;;;;6232831;28;20064;-59
2022/01/28 08:28:07;;;;;;;14.95;4.80;;;;;;;;;;6230206;28;20061;-59
2022/01/28 08:31:09;;;;;;;16.27;4.60;;;;;;;;;;6231580;28;20152;-60
2022/01/28 08:34:10;;;;;;;20.35;5.13;;;;;;;;;;6230283;28;20131;-61
2022/01/28 08:37:11;;;;;;;12.88;4.75;;;;;;;;;;6232286;28;20111;-58
2022/01/28 08:40:13;;;;;;;15.65;5.03;;;;;;;;;;6234054;28;20148;-61
2022/01/28 08:43:14;;;;;;;22.27;5.97;;;;;;;;;;6237181;28;20049;-61
2022/01/28 08:46:14;;;;;;;17.65;5.05;;;;;;;;;;6240479;28;20099;-59
2022/01/28 08:49:15;;;;;;;20.55;5.35;;;;;;;;;;6230603;28;20052;-61
2022/01/28 08:52:16;;;;;;;18.55;5.47;;;;;;;;;;6238983;28;20048;-61
2022/01/28 08:55:16;;;;;;;22.02;6.85;;;;;;;;;;6238576;28;20068;-61
2022/01/28 08:58:17;;;;;;;19.10;5.65;;;;;;;;;;6228239;28;20188;-59
2022/01/28 09:01:18;;;;;;;19.15;6.15;;;;;;;;;;6231248;28;20053;-60
2022/01/28 09:04:19;;;;;;;22.75;6.28;;;;;;;;;;6232716;28;20512;-60
2022/01/28 09:07:19;;;;;;;17.83;6.15;;;;;;;;;;6228209;28;20050;-59
2022/01/28 09:10:25;;;;;;;20.45;6.95;;;;;;;;;;6233251;28;20041;-62
2022/01/28 09:13:37;;;;;;;17.77;5.75;;;;;;;;;;6237747;28;20069;-60
2022/01/28 09:16:38;;;;;;;26.42;6.80;;;;;;;;;;6235065;28;20504;-58
2022/01/28 09:19:39;;;;;;;14.52;5.43;;;;;;;;;;6230597;28;20064;-61
2022/01/28 09:22:39;;;;;;;21.42;6.28;;;;;;;;;;6234143;28;20050;-63
2022/01/28 09:25:40;;;;;;;20.23;6.00;;;;;;;;;;6236269;28;20433;-62
2022/01/28 09:28:41;;;;;;;24.95;7.18;;;;;;;;;;6235618;28;20037;-63
2022/01/28 09:31:42;;;;;;;21.85;5.78;;;;;;;;;;6236210;28;20062;-60
2022/01/28 09:34:44;;;;;;;19.50;6.60;;;;;;;;;;6236226;28;20114;-61
2022/01/28 09:37:45;;;;;;;24.73;6.83;;;;;;;;;;6235583;28;20068;-61
2022/01/28 09:40:45;;;;;;;23.27;6.45;;;;;;;;;;6237905;28;20463;-62
2022/01/28 09:43:46;;;;;;;23.55;7.07;;;;;;;;;;6235672;28;20049;-61
2022/01/28 09:46:47;;;;;;;30.25;7.13;;;;;;;;;;6235574;28;20522;-61
2022/01/28 09:49:48;;;;;;;23.95;6.68;;;;;;;;;;6233012;28;20050;-63
2022/01/28 09:52:53;;;;;;;25.65;6.32;;;;;;;;;;6234743;28;20048;-61
2022/01/28 09:55:54;;;;;;;25.90;7.30;;;;;;;;;;6236969;28;20049;-61
2022/01/28 09:58:54;;;;;;;25.20;7.50;;;;;;;;;;6232476;28;20132;-62
2022/01/28 10:01:55;;;;;;;24.13;6.25;;;;;;;;;;6234273;28;20049;-62
2022/01/28 10:04:56;;;;;;;16.98;6.00;;;;;;;;;;6233964;28;20041;-60
2022/01/28 10:08:11;;;;;;;22.10;6.95;;;;;;;;;;6232825;28;20131;-62
2022/01/28 10:11:16;;;;;;;27.92;7.15;;;;;;;;;;6234093;28;20049;-62
2022/01/28 10:14:23;;;;;;;24.98;7.72;;;;;;;;;;6234911;28;20053;-61
2022/01/28 10:17:23;;;;;;;24.30;6.95;;;;;;;;;;6229010;28;20045;-61
2022/01/28 10:20:26;;;;;;;24.00;7.82;;;;;;;;;;6235699;28;20821;-62
2022/01/28 10:23:26;;;;;;;33.65;7.65;;;;;;;;;;6233118;28;20504;-63
2022/01/28 10:26:47;;;;;;;30.75;8.32;;;;;;;;;;6235663;28;20041;-61
2022/01/28 10:29:48;;;;;;;24.85;7.63;;;;;;;;;;6236794;28;20053;-62
2022/01/28 10:33:14;;;;;;;23.58;7.75;;;;;;;;;;6234783;28;20038;-62
2022/01/28 10:36:24;;;;;;;26.33;7.70;;;;;;;;;;6235316;28;20049;-61
2022/01/28 10:39:25;;;;;;;30.27;7.90;;;;;;;;;;6233333;28;20085;-61
2022/01/28 10:42:29;;;;;;;29.42;8.55;;;;;;;;;;6238010;28;20045;-61
2022/01/28 10:45:32;;;;;;;24.98;7.60;;;;;;;;;;6240273;28;20070;-62
2022/01/28 10:48:32;;;;;;;24.02;8.10;;;;;;;;;;6237601;28;20045;-63
2022/01/28 10:51:47;;;;;;;21.52;7.65;;;;;;;;;;6240469;28;20465;-62
2022/01/28 10:54:56;;;;;;;20.45;6.72;;;;;;;;;;6240948;28;20124;-63
2022/01/28 10:58:06;;;;;;;23.55;8.23;;;;;;;;;;6237683;28;20037;-65
2022/01/28 11:01:12;;;;;;;23.20;7.40;;;;;;;;;;6240518;28;20114;-63
2022/01/28 11:04:15;;;;;;;25.00;7.90;;;;;;;;;;6239648;28;20083;-62
2022/01/28 11:07:16;;;;;;;23.23;7.95;;;;;;;;;;6237626;28;20115;-59
2022/01/28 11:10:17;;;;;;;30.52;9.90;;;;;;;;;;6240172;28;20049;-64
2022/01/28 11:13:18;;;;;;;26.58;9.38;;;;;;;;;;6235766;28;20465;-60
2022/01/28 11:16:18;;;;;;;26.58;9.45;;;;;;;;;;6233808;28;20473;-63
2022/01/28 11:19:22;;;;;;;22.23;7.93;;;;;;;;;;6233639;28;20111;-63
2022/01/28 11:22:45;;;;;;;23.65;7.72;;;;;;;;;;6229990;28;20079;-61
2022/01/28 11:26:19;;;;;;;20.88;7.50;;;;;;;;;;6236403;28;20065;-62
2022/01/28 11:29:25;;;;;;;21.85;7.32;;;;;;;;;;6235420;28;20166;-63
2022/01/28 11:32:26;;;;;;;17.48;7.53;;;;;;;;;;6232541;28;20124;-62
2022/01/28 11:35:29;;;;;;;28.00;11.02;;;;;;;;;;6231736;28;21882;-61
2022/01/28 11:38:30;;;;;;;28.92;8.40;;;;;;;;;;6231760;28;20053;-61
2022/01/28 11:41:31;;;;;;;25.35;8.75;;;;;;;;;;6232059;28;20516;-62
2022/01/28 11:44:50;;;;;;;24.00;8.27;;;;;;;;;;6234178;28;20033;-62
2022/01/28 11:47:56;;;;;;;22.73;9.63;;;;;;;;;;6230692;28;20065;-62
2022/01/28 11:51:02;;;;;;;24.20;8.05;;;;;;;;;;6233465;28;20049;-61
2022/01/28 11:54:08;;;;;;;21.15;7.95;;;;;;;;;;6231717;28;20068;-61
2022/01/28 11:57:14;;;;;;;28.77;8.00;;;;;;;;;;6234760;28;20045;-61
2022/01/28 12:00:27;;;;;;;33.10;8.95;;;;;;;;;;6234752;28;20076;-61
2022/01/28 12:03:29;;;;;;;19.42;8.80;;;;;;;;;;6235616;28;20049;-61
2022/01/28 12:06:30;;;;;;;24.40;9.63;;;;;;;;;;6233255;28;20536;-61
2022/01/28 12:09:34;;;;;;;35.42;9.40;;;;;;;;;;6236293;28;20064;-61
2022/01/28 12:12:42;;;;;;;21.85;8.40;;;;;;;;;;6240415;28;20509;-61
2022/01/28 12:15:59;;;;;;;25.13;9.20;;;;;;;;;;6236293;28;20127;-61
2022/01/28 12:19:02;;;;;;;25.05;8.80;;;;;;;;;;6228969;28;20084;-59
2022/01/28 12:22:08;;;;;;;21.85;8.00;;;;;;;;;;6236766;28;20052;-61
2022/01/28 12:25:40;;;;;;;31.50;9.35;;;;;;;;;;6232203;28;20123;-61
2022/01/28 12:28:46;;;;;;;23.45;8.98;;;;;;;;;;6231001;28;20053;-60
2022/01/28 12:31:56;;;;;;;25.95;9.48;;;;;;;;;;6238679;28;20064;-61
2022/01/28 12:34:58;;;;;;;24.98;9.85;;;;;;;;;;6236128;28;20549;-60
2022/01/28 12:38:02;;;;;;;;;;;;;;;;;;6235337;28;20506;-61
2022/01/28 12:41:07;;;;;;;;;;;;;;;;;;6237948;28;20369;-61
2022/01/28 12:44:10;;;;;;;22.70;9.20;;;;;;;;;;6231387;28;19925;-59
2022/01/28 12:47:10;;;;;;;25.77;8.63;;;;;;;;;;6235007;28;20048;-60
2022/01/28 12:50:13;;;;;;;28.30;9.00;;;;;;;;;;6237295;28;20053;-61
2022/01/28 12:53:30;;;;;;;32.95;10.05;;;;;;;;;;6236717;28;20056;-61
2022/01/28 12:56:38;;;;;;;28.50;8.50;;;;;;;;;;6237706;28;20061;-60
2022/01/28 12:59:42;;;;;;;26.38;9.65;;;;;;;;;;6239054;28;20037;-59
2022/01/28 13:02:49;;;;;;;30.30;10.05;;;;;;;;;;6242303;28;20178;-61
2022/01/28 13:05:56;;;;;;;27.98;9.38;;;;;;;;;;6239578;28;20041;-61
2022/01/28 13:08:57;;;;;;;28.92;10.95;;;;;;;;;;6234972;28;20115;-61
2022/01/28 13:12:01;;;;;;;27.58;9.77;;;;;;;;;;6234373;28;20041;-61
2022/01/28 13:15:09;;;;;;;32.58;10.35;;;;;;;;;;6234677;28;20072;-61
2022/01/28 13:18:10;;;;;;;33.05;10.35;;;;;;;;;;6233519;28;20061;-62
2022/01/28 13:21:10;;;;;;;32.35;10.93;;;;;;;;;;6235453;28;20044;-61
2022/01/28 13:24:15;;;;;;;37.83;11.68;;;;;;;;;;6235434;28;20060;-61
2022/01/28 13:27:17;;;;;;;33.53;11.10;;;;;;;;;;6233401;28;20575;-61
2022/01/28 13:30:19;;;;;;;35.97;10.60;;;;;;;;;;6238143;28;20124;-61
2022/01/28 13:33:28;;;;;;;33.55;10.18;;;;;;;;;;6235131;28;20077;-61
2022/01/28 13:36:49;;;;;;;35.63;11.77;;;;;;;;;;6235556;28;20055;-59
2022/01/28 13:39:50;;;;;;;29.65;10.48;;;;;;;;;;6234837;28;20064;-59
2022/01/28 13:43:01;;;;;;;26.63;10.10;;;;;;;;;;6235974;28;20477;-60
2022/01/28 13:46:12;;;;;;;34.72;10.35;;;;;;;;;;6234407;28;20116;-60
2022/01/28 13:49:15;;;;;;;29.27;10.05;;;;;;;;;;6235333;28;20460;-61
2022/01/28 13:52:26;;;;;;;33.85;9.45;;;;;;;;;;6235918;28;20103;-61
2022/01/28 13:55:35;;;;;;;30.08;9.30;;;;;;;;;;6234944;28;20084;-61
2022/01/28 13:58:48;;;;;;;40.03;11.20;;;;;;;;;;6230596;28;21337;-61
2022/01/28 14:01:50;;;;;;;34.88;9.30;;;;;;;;;;6233965;28;20165;-60
2022/01/28 14:04:53;;;;;;;29.90;9.35;;;;;;;;;;6230742;28;20468;-60
2022/01/28 14:07:53;;;;;;;40.22;11.18;;;;;;;;;;6226711;28;20069;-61
2022/01/28 14:10:54;;;;;;;29.92;9.27;;;;;;;;;;6237390;28;20068;-60
2022/01/28 14:14:15;;;;;;;37.75;10.35;;;;;;;;;;6233549;28;20045;-61
2022/01/28 14:17:16;;;;;;;29.38;8.48;;;;;;;;;;6230671;28;20099;-60
2022/01/28 14:20:16;;;;;;;32.10;9.63;;;;;;;;;;6235849;28;20050;-60
2022/01/28 14:23:17;;;;;;;36.85;9.23;;;;;;;;;;6233484;28;20049;-59
2022/01/28 14:26:19;;;;;;;31.77;9.35;;;;;;;;;;6234357;28;20079;-61
2022/01/28 14:29:48;;;;;;;33.30;9.57;;;;;;;;;;6227134;28;20057;-60
2022/01/28 14:32:48;;;;;;;31.73;9.48;;;;;;;;;;6236655;28;20482;-60
2022/01/28 14:35:49;;;;;;;36.03;9.93;;;;;;;;;;6234973;28;20033;-61
2022/01/28 14:38:50;;;;;;;34.63;10.73;;;;;;;;;;6230912;28;20153;-61
2022/01/28 14:41:53;;;;;;;26.73;8.93;;;;;;;;;;6231992;28;20057;-60
2022/01/28 14:44:54;;;;;;;30.88;9.40;;;;;;;;;;6231553;28;20131;-60
2022/01/28 14:47:55;;;;;;;30.73;8.95;;;;;;;;;;6231499;28;20053;-61
2022/01/28 14:50:55;;;;;;;32.70;9.93;;;;;;;;;;6233786;28;20128;-61
2022/01/28 14:53:56;;;;;;;37.58;9.55;;;;;;;;;;6232844;28;20412;-61
2022/01/28 14:56:59;;;;;;;35.33;9.95;;;;;;;;;;6232553;28;20523;-58
2022/01/28 15:00:00;;;;;;;38.28;10.57;;;;;;;;;;6231811;28;20110;-60
2022/01/28 15:03:01;;;;;;;37.88;10.15;;;;;;;;;;6233448;28;20086;-60
2022/01/28 15:06:02;;;;;;;39.63;10.35;;;;;;;;;;6231472;28;20057;-60
2022/01/28 15:09:03;;;;;;;35.72;10.80;;;;;;;;;;6231156;28;20550;-60
2022/01/28 15:12:04;;;;;;;33.13;10.90;;;;;;;;;;6230652;28;20095;-59
2022/01/28 15:15:06;;;;;;;32.08;10.27;;;;;;;;;;6229984;28;20525;-61
2022/01/28 15:18:06;;;;;;;38.08;11.32;;;;;;;;;;6231218;28;20077;-60
2022/01/28 15:21:07;;;;;;;40.53;10.82;;;;;;;;;;6233811;28;20140;-60
2022/01/28 15:24:08;;;;;;;25.35;9.13;;;;;;;;;;6231710;28;20408;-59
2022/01/28 15:27:09;;;;;;;38.25;10.35;;;;;;;;;;6230485;28;20077;-60
2022/01/28 15:36:43;;;;;;;31.58;10.57;;;;;;;;;;6229537;28;20049;-60
2022/01/28 15:39:43;;;;;;;35.30;10.30;;;;;;;;;;6232686;28;20049;-59
2022/01/28 15:42:46;;;;;;;29.85;9.65;;;;;;;;;;6237887;28;20052;-60
2022/01/28 15:45:47;;;;;;;21.52;10.25;;;;;;;;;;6232425;28;20042;-60
2022/01/28 15:48:48;;;;;;;33.92;10.05;;;;;;;;;;6230612;28;20083;-60
2022/01/28 15:51:49;;;;;;;28.92;8.93;;;;;;;;;;6234765;28;20084;-61
2022/01/28 15:54:50;;;;;;;33.00;8.80;;;;;;;;;;6236048;28;20492;-61
2022/01/28 15:57:51;;;;;;;30.27;9.25;;;;;;;;;;6230069;28;20052;-61
2022/01/28 16:00:52;;;;;;;34.42;9.35;;;;;;;;;;6231872;28;20493;-60
2022/01/28 16:03:52;;;;;;;32.53;9.27;;;;;;;;;;6230676;28;20045;-59
2022/01/28 16:06:53;;;;;;;23.90;7.82;;;;;;;;;;6233845;28;20042;-61
2022/01/28 16:10:01;;;;;;;26.40;9.05;;;;;;;;;;6236594;28;20068;-60
2022/01/28 16:13:14;;;;;;;29.35;8.40;;;;;;;;;;6240169;28;20030;-61
2022/01/28 16:19:36;;;;;;;26.55;9.15;;;;;;;;;;6229861;28;20490;-60
2022/01/28 16:22:37;;;;;;;28.15;8.20;;;;;;;;;;6232831;28;20073;-60
2022/01/28 16:25:38;;;;;;;37.57;10.63;;;;;;;;;;6237251;28;20072;-61
2022/01/28 16:28:39;;;;;;;33.95;9.00;;;;;;;;;;6234393;28;20302;-61
2022/01/28 16:31:40;;;;;;;28.13;9.20;;;;;;;;;;6235400;28;20481;-61
2022/01/28 16:34:40;;;;;;;27.90;9.10;;;;;;;;;;6236343;28;20136;-60
2022/01/28 16:37:41;;;;;;;30.05;7.68;;;;;;;;;;6237983;28;20045;-61
2022/01/28 16:40:44;;;;;;;32.28;8.68;;;;;;;;;;6235348;28;20053;-60
2022/01/28 16:44:00;;;;;;;29.35;8.40;;;;;;;;;;6235642;28;20068;-60
2022/01/28 16:47:00;;;;;;;22.63;7.82;;;;;;;;;;6235877;28;20631;-61
2022/01/28 16:50:02;;;;;;;24.65;7.18;;;;;;;;;;6235001;28;20041;-60
2022/01/28 16:53:03;;;;;;;26.73;8.20;;;;;;;;;;6232613;28;20049;-61
2022/01/28 16:56:03;;;;;;;29.25;8.65;;;;;;;;;;6238630;28;20073;-61
2022/01/28 16:59:05;;;;;;;24.23;7.82;;;;;;;;;;6235796;28;20080;-60
2022/01/28 17:02:06;;;;;;;35.13;7.78;;;;;;;;;;6229839;28;20492;-61
2022/01/28 17:05:07;;;;;;;37.55;9.38;;;;;;;;;;6229234;28;20049;-60
2022/01/28 17:08:08;;;;;;;32.40;9.75;;;;;;;;;;6237235;28;20089;-61
2022/01/28 17:11:41;;;;;;;32.90;9.30;;;;;;;;;;6236999;28;20076;-61
2022/01/28 17:14:33;;;;;;;32.70;9.25;;;;;;;;;;6234614;28;20091;-60
2022/01/28 17:17:33;;;;;;;43.55;9.88;;;;;;;;;;6236066;28;20059;-61
2022/01/28 17:20:35;;;;;;;36.05;9.70;;;;;;;;;;6240112;28;20523;-61
2022/01/28 17:23:40;;;;;;;40.90;11.73;;;;;;;;;;6237016;28;20045;-62
2022/01/28 17:26:41;;;;;;;34.83;11.27;;;;;;;;;;6240920;28;20468;-60
2022/01/28 17:29:43;;;;;;;29.80;10.75;;;;;;;;;;6233157;28;20381;-61
2022/01/28 17:32:45;;;;;;;35.92;10.18;;;;;;;;;;6235110;28;20046;-64
2022/01/28 17:35:47;;;;;;;36.50;9.27;;;;;;;;;;6236287;28;20048;-60
2022/01/28 17:38:48;;;;;;;47.07;11.67;;;;;;;;;;6231916;28;20293;-60
2022/01/28 17:41:49;;;;;;;37.13;11.80;;;;;;;;;;6234046;28;20172;-60
2022/01/28 17:44:50;;;;;;;52.75;13.63;;;;;;;;;;6235514;28;20096;-60
2022/01/28 17:47:52;;;;;;;45.67;11.20;;;;;;;;;;6233014;28;20508;-60
2022/01/28 17:50:53;;;;;;;30.00;9.13;;;;;;;;;;6233620;28;20138;-60
2022/01/28 17:53:54;;;;;;;31.70;9.88;;;;;;;;;;6235964;28;20053;-61
2022/01/28 17:56:55;;;;;;;36.10;10.18;;;;;;;;;;6234689;28;20091;-61
2022/01/28 17:59:56;;;;;;;28.83;9.23;;;;;;;;;;6232785;28;20041;-60
2022/01/28 18:02:57;;;;;;;33.47;11.93;;;;;;;;;;6235772;28;20519;-61
2022/01/28 18:05:59;;;;;;;19.92;7.28;;;;;;;;;;6234739;28;20912;-60
2022/01/28 18:09:00;;;;;;;23.55;6.80;;;;;;;;;;6232653;28;20053;-62
2022/01/28 18:12:01;;;;;;;15.63;5.80;;;;;;;;;;6233010;28;20053;-60
2022/01/28 18:15:03;;;;;;;23.20;6.93;;;;;;;;;;6234890;28;20037;-61
2022/01/28 18:18:03;;;;;;;21.88;8.57;;;;;;;;;;6235038;28;20045;-61
2022/01/28 18:21:04;;;;;;;29.33;10.27;;;;;;;;;;6234345;28;20507;-61
2022/01/28 18:24:08;;;;;;;33.92;10.80;;;;;;;;;;6234872;28;20120;-60
2022/01/28 18:27:10;;;;;;;39.13;13.68;;;;;;;;;;6231825;28;20087;-60
2022/01/28 18:30:11;;;;;;;28.50;11.48;;;;;;;;;;6235046;28;20056;-61
2022/01/28 18:33:12;;;;;;;35.15;11.85;;;;;;;;;;6236776;28;20132;-61
2022/01/28 18:36:13;;;;;;;40.42;12.40;;;;;;;;;;6235430;28;20595;-61
2022/01/28 18:39:15;;;;;;;34.58;11.60;;;;;;;;;;6236131;28;20045;-61
2022/01/28 18:42:25;;;;;;;30.48;11.68;;;;;;;;;;6235316;28;20059;-60
2022/01/28 18:45:32;;;;;;;;;;;;;;;;;;6234168;28;20153;-61
2022/01/28 18:48:34;;;;;;;20.88;7.63;;;;;;;;;;6238568;28;19933;-60
2022/01/28 18:51:35;;;;;;;26.30;7.78;;;;;;;;;;6234166;28;20066;-61
2022/01/28 18:54:36;;;;;;;20.35;7.45;;;;;;;;;;6234978;28;20484;-60
2022/01/28 18:57:37;;;;;;;28.85;10.32;;;;;;;;;;6244680;28;20043;-60
2022/01/28 19:00:38;;;;;;;28.67;8.70;;;;;;;;;;6237343;28;20052;-60
2022/01/28 19:03:39;;;;;;;24.85;8.18;;;;;;;;;;6232295;28;20041;-61
2022/01/28 19:06:40;;;;;;;19.63;8.27;;;;;;;;;;6236234;28;20048;-60
2022/01/28 19:09:42;;;;;;;21.83;8.27;;;;;;;;;;6239374;28;20072;-61
2022/01/28 19:12:47;;;;;;;27.27;7.90;;;;;;;;;;6232483;28;20042;-60
2022/01/28 19:15:48;;;;;;;12.98;5.18;;;;;;;;;;6236365;28;20056;-61
2022/01/28 19:18:49;;;;;;;12.18;4.07;;;;;;;;;;6237774;28;20064;-60
2022/01/28 19:21:50;;;;;;;10.80;4.70;;;;;;;;;;6235243;28;20060;-60
2022/01/28 19:24:51;;;;;;;11.33;3.47;;;;;;;;;;6235268;28;20394;-60
2022/01/28 19:27:52;;;;;;;9.52;4.30;;;;;;;;;;6249236;28;20037;-61
2022/01/28 19:30:53;;;;;;;13.07;4.93;;;;;;;;;;6247399;28;20044;-61
2022/01/28 19:33:53;;;;;;;17.15;5.40;;;;;;;;;;6243043;28;20099;-60
2022/01/28 19:36:54;;;;;;;17.92;5.95;;;;;;;;;;6247910;28;20420;-60
2022/01/28 19:39:55;;;;;;;19.42;6.15;;;;;;;;;;6243247;28;20049;-60